createdAt,value
2022-10-01T00:00:20.648Z,4.40
2022-10-01T00:02:47.024Z,5.05
2022-10-01T00:05:13.419Z,4.53
2022-10-01T00:07:40.719Z,4.75
2022-10-01T00:10:07.340Z,4.47
2022-10-01T00:12:33.914Z,4.85
2022-10-01T00:15:03.154Z,4.68
2022-10-01T00:17:33.469Z,4.80
2022-10-01T00:19:59.827Z,5.22
2022-10-01T00:22:26.022Z,4.80
2022-10-01T00:24:52.224Z,4.75
2022-10-01T00:27:18.425Z,4.60
2022-10-01T00:29:45.274Z,5.15
2022-10-01T00:32:11.451Z,4.90
2022-10-01T00:34:37.621Z,5.45
2022-10-01T00:37:04.589Z,4.95
2022-10-01T00:39:30.792Z,4.90
2022-10-01T00:41:57.017Z,5.20
2022-10-01T00:44:36.668Z,5.03
2022-10-01T00:47:10.842Z,5.40
2022-10-01T00:49:37.758Z,4.82
2022-10-01T00:52:06.609Z,5.10
2022-10-01T00:54:39.436Z,5.38
2022-10-01T00:57:06.736Z,5.30
2022-10-01T00:59:33.524Z,5.18
2022-10-01T01:01:59.812Z,4.93
2022-10-01T01:04:26.305Z,5.35
2022-10-01T01:06:57.411Z,5.28
2022-10-01T01:09:26.114Z,4.93
2022-10-01T01:12:04.631Z,4.85
2022-10-01T01:14:49.466Z,5.13
2022-10-01T01:17:22.050Z,4.60
2022-10-01T01:20:07.523Z,4.63
2022-10-01T01:22:36.196Z,4.43
2022-10-01T01:25:16.407Z,4.70
2022-10-01T01:27:46.177Z,5.50
2022-10-01T01:30:14.977Z,5.28
2022-10-01T01:32:49.038Z,5.30
2022-10-01T01:35:26.372Z,5.30
2022-10-01T01:37:57.206Z,4.90
2022-10-01T01:40:24.622Z,5.03
2022-10-01T01:42:51.939Z,5.63
2022-10-01T01:45:19.954Z,5.43
2022-10-01T01:47:46.516Z,5.07
2022-10-01T01:50:13.703Z,4.43
2022-10-01T01:52:41.169Z,4.82
2022-10-01T01:55:09.044Z,4.97
2022-10-01T01:57:40.611Z,5.13
2022-10-01T02:02:35.207Z,4.80
2022-10-01T02:05:13.861Z,4.90
2022-10-01T02:07:49.294Z,4.90
2022-10-01T02:10:29.144Z,4.88
2022-10-01T02:12:55.377Z,4.88
2022-10-01T02:15:29.459Z,4.68
2022-10-01T02:18:04.948Z,5.22
2022-10-01T02:20:34.926Z,4.68
2022-10-01T02:23:05.346Z,5.15
2022-10-01T02:25:34.504Z,5.07
2022-10-01T02:28:03.432Z,5.10
2022-10-01T02:30:31.177Z,5.03
2022-10-01T02:32:59.213Z,3.97
2022-10-01T02:35:26.170Z,4.35
2022-10-01T02:37:53.067Z,4.38
2022-10-01T02:40:22.255Z,4.30
2022-10-01T02:42:50.766Z,4.63
2022-10-01T02:45:19.456Z,4.55
2022-10-01T02:47:50.296Z,4.57
2022-10-01T02:50:16.533Z,4.72
2022-10-01T02:52:47.716Z,4.50
2022-10-01T02:55:17.356Z,4.13
2022-10-01T02:57:43.599Z,3.80
2022-10-01T03:00:11.230Z,4.57
2022-10-01T03:02:37.662Z,4.13
2022-10-01T03:05:04.128Z,3.80
2022-10-01T03:07:31.316Z,3.95
2022-10-01T03:09:57.570Z,4.43
2022-10-01T03:12:23.979Z,3.90
2022-10-01T03:14:50.533Z,3.80
2022-10-01T03:17:16.850Z,3.42
2022-10-01T03:19:43.063Z,3.65
2022-10-01T03:22:11.450Z,3.38
2022-10-01T03:24:37.655Z,3.50
2022-10-01T03:27:03.876Z,3.70
2022-10-01T03:29:30.146Z,3.53
2022-10-01T03:31:56.348Z,3.47
2022-10-01T03:34:22.641Z,3.88
2022-10-01T03:36:49.921Z,3.65
2022-10-01T03:39:16.170Z,4.03
2022-10-01T03:41:42.415Z,3.75
2022-10-01T03:44:08.682Z,3.67
2022-10-01T03:46:34.893Z,3.38
2022-10-01T03:49:01.216Z,3.20
2022-10-01T03:51:28.366Z,3.00
2022-10-01T03:53:55.316Z,2.72
2022-10-01T03:56:21.643Z,2.90
2022-10-01T03:58:48.022Z,2.80
2022-10-01T04:01:14.319Z,2.65
2022-10-01T04:03:41.438Z,2.00
2022-10-01T04:06:07.738Z,2.10
2022-10-01T04:08:33.990Z,2.08
2022-10-01T04:11:00.987Z,1.80
2022-10-01T04:13:27.640Z,1.30
2022-10-01T04:15:53.875Z,1.50
2022-10-01T04:18:21.436Z,1.35
2022-10-01T04:20:47.707Z,1.27
2022-10-01T04:23:14.045Z,1.20
2022-10-01T04:25:40.422Z,0.90
2022-10-01T04:28:07.915Z,0.80
2022-10-01T04:30:35.392Z,1.00
2022-10-01T04:33:02.007Z,1.10
2022-10-01T04:35:28.541Z,0.88
2022-10-01T04:38:05.562Z,0.75
2022-10-01T04:40:33.262Z,0.75
2022-10-01T04:42:59.458Z,0.70
2022-10-01T04:45:25.714Z,0.70
2022-10-01T04:47:53.018Z,0.63
2022-10-01T04:50:19.422Z,0.80
2022-10-01T04:52:46.265Z,0.95
2022-10-01T04:55:12.866Z,0.80
2022-10-01T04:57:39.127Z,0.70
2022-10-01T05:00:10.449Z,0.88
2022-10-01T05:02:36.868Z,0.90
2022-10-01T05:05:03.984Z,0.70
2022-10-01T05:07:31.252Z,0.70
2022-10-01T05:09:57.851Z,0.60
2022-10-01T05:12:25.307Z,0.60
2022-10-01T05:14:52.271Z,0.80
2022-10-01T05:17:19.462Z,0.60
2022-10-01T05:19:46.015Z,0.60
2022-10-01T05:22:12.502Z,0.80
2022-10-01T05:24:38.805Z,0.90
2022-10-01T05:27:05.183Z,0.70
2022-10-01T05:29:31.739Z,0.77
2022-10-01T05:31:58.116Z,0.60
2022-10-01T05:34:24.358Z,0.70
2022-10-01T05:36:50.541Z,0.68
2022-10-01T05:39:16.764Z,1.05
2022-10-01T05:41:42.924Z,0.73
2022-10-01T05:44:09.138Z,0.60
2022-10-01T05:46:35.316Z,0.70
2022-10-01T05:49:01.673Z,0.52
2022-10-01T05:51:27.852Z,0.70
2022-10-01T05:53:54.703Z,0.70
2022-10-01T05:56:20.885Z,0.70
2022-10-01T05:58:47.128Z,0.70
2022-10-01T06:01:13.523Z,0.60
2022-10-01T06:03:39.701Z,0.55
2022-10-01T06:06:06.045Z,0.70
2022-10-01T06:08:35.479Z,0.55
2022-10-01T06:11:02.092Z,0.50
2022-10-01T06:13:29.179Z,0.50
2022-10-01T06:15:55.476Z,0.60
2022-10-01T06:18:21.795Z,0.40
2022-10-01T06:20:47.997Z,0.43
2022-10-01T06:23:14.428Z,0.50
2022-10-01T06:25:41.895Z,0.52
2022-10-01T06:28:09.382Z,0.30
2022-10-01T06:30:37.198Z,0.30
2022-10-01T06:33:13.454Z,0.40
2022-10-01T06:35:40.845Z,0.30
2022-10-01T06:38:07.960Z,0.30
2022-10-01T06:40:34.132Z,0.57
2022-10-01T06:43:00.399Z,0.30
2022-10-01T06:45:27.458Z,0.40
2022-10-01T06:47:57.836Z,0.50
2022-10-01T06:50:24.695Z,0.38
2022-10-01T06:52:51.373Z,0.60
2022-10-01T06:55:25.252Z,0.40
2022-10-01T06:57:55.514Z,0.40
2022-10-01T07:00:21.931Z,0.30
2022-10-01T07:02:48.278Z,0.47
2022-10-01T07:05:14.875Z,0.40
2022-10-01T07:07:41.144Z,0.63
2022-10-01T07:10:08.496Z,0.50
2022-10-01T07:12:35.433Z,0.55
2022-10-01T07:15:01.958Z,0.40
2022-10-01T07:17:28.466Z,0.40
2022-10-01T07:19:54.661Z,0.43
2022-10-01T07:22:23.976Z,0.43
2022-10-01T07:24:50.199Z,0.40
2022-10-01T07:27:16.407Z,0.40
2022-10-01T07:29:42.642Z,0.50
2022-10-01T07:32:10.301Z,0.40
2022-10-01T07:34:38.082Z,0.50
2022-10-01T07:37:04.326Z,0.50
2022-10-01T07:39:30.701Z,0.70
2022-10-01T07:41:56.993Z,0.77
2022-10-01T07:44:23.251Z,0.63
2022-10-01T07:46:49.468Z,0.50
2022-10-01T07:49:16.700Z,0.50
2022-10-01T07:51:43.839Z,0.70
2022-10-01T07:54:10.380Z,0.43
2022-10-01T07:56:36.564Z,0.50
2022-10-01T07:59:02.846Z,0.38
2022-10-01T08:01:31.726Z,0.40
2022-10-01T08:03:58.205Z,0.40
2022-10-01T08:06:25.762Z,0.30
2022-10-01T08:08:52.086Z,0.68
2022-10-01T08:11:18.313Z,0.32
2022-10-01T08:13:47.858Z,0.60
2022-10-01T08:16:14.115Z,0.50
2022-10-01T08:18:40.640Z,0.50
2022-10-01T08:21:07.094Z,0.57
2022-10-01T08:23:33.684Z,0.40
2022-10-01T08:26:01.279Z,0.55
2022-10-01T08:28:27.608Z,0.40
2022-10-01T08:30:54.794Z,0.50
2022-10-01T08:33:20.996Z,0.40
2022-10-01T08:35:47.188Z,0.40
2022-10-01T08:38:13.508Z,0.40
2022-10-01T08:40:46.428Z,0.30
2022-10-01T08:43:24.868Z,0.50
2022-10-01T08:45:52.533Z,0.70
2022-10-01T08:48:28.436Z,0.70
2022-10-01T08:50:58.111Z,0.50
2022-10-01T08:53:30.077Z,0.50
2022-10-01T08:55:57.273Z,1.20
2022-10-01T08:58:25.617Z,1.00
2022-10-01T09:00:52.646Z,1.13
2022-10-01T09:03:18.966Z,0.82
2022-10-01T09:05:59.758Z,1.00
2022-10-01T09:08:44.728Z,1.13
2022-10-01T09:11:29.289Z,0.90
2022-10-01T09:14:18.912Z,1.10
2022-10-01T09:17:04.068Z,0.95
2022-10-01T09:19:33.392Z,0.80
2022-10-01T09:22:03.197Z,1.15
2022-10-01T09:24:49.918Z,1.00
2022-10-01T09:27:17.474Z,1.02
2022-10-01T09:29:53.454Z,1.20
2022-10-01T09:32:22.570Z,1.27
2022-10-01T09:34:49.032Z,1.17
2022-10-01T09:37:16.171Z,1.30
2022-10-01T09:39:57.191Z,1.25
2022-10-01T09:42:26.411Z,1.15
2022-10-01T09:44:54.553Z,1.38
2022-10-01T09:47:22.108Z,1.63
2022-10-01T09:49:48.936Z,1.50
2022-10-01T09:52:19.091Z,1.30
2022-10-01T09:55:00.160Z,1.63
2022-10-01T09:57:28.240Z,1.40
2022-10-01T09:59:57.288Z,1.73
2022-10-01T10:02:30.230Z,2.15
2022-10-01T10:05:04.421Z,1.67
2022-10-01T10:07:32.566Z,1.95
2022-10-01T10:10:07.888Z,2.00
2022-10-01T10:12:34.632Z,2.20
2022-10-01T10:15:06.870Z,1.77
2022-10-01T10:17:34.279Z,1.85
2022-10-01T10:20:00.948Z,1.75
2022-10-01T10:22:27.778Z,1.85
2022-10-01T10:24:54.560Z,1.70
2022-10-01T10:27:26.537Z,1.67
2022-10-01T10:30:04.284Z,1.88
2022-10-01T10:32:30.568Z,1.92
2022-10-01T10:35:02.681Z,2.00
2022-10-01T10:37:31.094Z,2.15
2022-10-01T10:39:58.207Z,1.98
2022-10-01T10:42:25.131Z,2.30
2022-10-01T10:44:53.314Z,2.13
2022-10-01T10:47:20.543Z,2.10
2022-10-01T10:49:52.852Z,2.30
2022-10-01T10:52:21.032Z,2.30
2022-10-01T10:54:48.289Z,2.20
2022-10-01T10:57:23.290Z,1.98
2022-10-01T10:59:56.053Z,2.28
2022-10-01T11:02:23.782Z,2.00
2022-10-01T11:04:50.456Z,1.70
2022-10-01T11:07:19.998Z,1.80
2022-10-01T11:10:05.749Z,1.73
2022-10-01T11:12:46.617Z,1.73
2022-10-01T11:15:15.902Z,1.95
2022-10-01T11:17:59.165Z,1.98
2022-10-01T11:20:37.382Z,1.90
2022-10-01T11:23:27.950Z,1.88
2022-10-01T11:26:10.314Z,1.80
2022-10-01T11:28:36.966Z,1.60
2022-10-01T11:31:11.229Z,2.03
2022-10-01T11:33:44.979Z,1.75
2022-10-01T11:36:17.488Z,1.70
2022-10-01T11:38:46.966Z,2.13
2022-10-01T11:41:19.049Z,2.28
2022-10-01T11:43:53.148Z,2.40
2022-10-01T11:46:27.071Z,2.15
2022-10-01T11:49:02.100Z,1.70
2022-10-01T11:51:36.993Z,1.90
2022-10-01T11:54:07.296Z,1.88
2022-10-01T11:56:54.243Z,1.70
2022-10-01T11:59:23.195Z,1.63
2022-10-01T12:01:51.223Z,1.75
2022-10-01T12:04:17.476Z,1.90
2022-10-01T12:06:53.072Z,2.13
2022-10-01T12:09:39.026Z,2.03
2022-10-01T12:12:13.226Z,2.20
2022-10-01T12:14:59.158Z,1.90
2022-10-01T12:17:36.972Z,2.42
2022-10-01T12:20:04.439Z,2.75
2022-10-01T12:22:32.522Z,2.25
2022-10-01T12:24:58.761Z,2.30
2022-10-01T12:27:35.318Z,2.40
2022-10-01T12:30:01.532Z,2.22
2022-10-01T12:32:53.850Z,2.20
2022-10-01T12:35:26.280Z,1.70
2022-10-01T12:38:01.430Z,2.08
2022-10-01T12:40:31.332Z,1.73
2022-10-01T12:43:16.497Z,1.70
2022-10-01T12:45:49.532Z,1.63
2022-10-01T12:48:20.982Z,1.73
2022-10-01T12:50:50.885Z,1.38
2022-10-01T12:53:25.660Z,1.63
2022-10-01T12:55:58.198Z,1.60
2022-10-01T12:58:27.837Z,1.85
2022-10-01T13:01:00.008Z,2.08
2022-10-01T13:03:44.730Z,1.90
2022-10-01T13:06:29.357Z,2.30
2022-10-01T13:08:58.453Z,1.88
2022-10-01T13:12:03.387Z,2.05
2022-10-01T13:14:33.029Z,1.90
2022-10-01T13:17:19.562Z,1.80
2022-10-01T13:19:51.077Z,2.08
2022-10-01T13:24:55.792Z,2.10
2022-10-01T13:27:35.706Z,2.00
2022-10-01T13:30:04.517Z,2.78
2022-10-01T13:32:33.233Z,2.90
2022-10-01T13:35:01.232Z,3.10
2022-10-01T13:37:31.917Z,2.70
2022-10-01T13:39:58.836Z,2.80
2022-10-01T13:42:27.403Z,2.55
2022-10-01T13:44:53.636Z,3.35
2022-10-01T13:47:20.576Z,2.65
2022-10-01T13:49:54.179Z,2.45
2022-10-01T13:52:20.870Z,2.90
2022-10-01T13:54:49.999Z,2.40
2022-10-01T13:57:22.203Z,3.35
2022-10-01T13:59:57.272Z,2.78
2022-10-01T14:02:28.613Z,2.75
2022-10-01T14:07:23.619Z,2.85
2022-10-01T14:09:51.579Z,2.30
2022-10-01T14:12:56.146Z,2.28
2022-10-01T14:15:41.958Z,2.55
2022-10-01T14:18:20.676Z,2.75
2022-10-01T14:21:06.639Z,2.67
2022-10-01T14:23:32.806Z,3.00
2022-10-01T14:26:05.040Z,2.95
2022-10-01T14:28:36.976Z,2.75
2022-10-01T14:31:09.318Z,2.88
2022-10-01T14:33:44.513Z,2.40
2022-10-01T14:36:16.818Z,2.63
2022-10-01T14:38:43.163Z,3.03
2022-10-01T14:41:17.038Z,2.83
2022-10-01T14:43:43.236Z,2.80
2022-10-01T14:46:15.359Z,2.58
2022-10-01T14:48:41.879Z,2.70
2022-10-01T14:51:21.991Z,3.05
2022-10-01T14:53:48.256Z,2.72
2022-10-01T14:56:15.693Z,2.90
2022-10-01T14:58:43.778Z,3.50
2022-10-01T15:01:17.402Z,3.05
2022-10-01T15:03:43.970Z,3.13
2022-10-01T15:06:14.694Z,3.28
2022-10-01T15:08:41.991Z,2.97
2022-10-01T15:11:11.704Z,2.20
2022-10-01T15:13:39.586Z,2.63
2022-10-01T15:16:10.481Z,2.53
2022-10-01T15:18:38.424Z,2.63
2022-10-01T15:21:06.304Z,2.10
2022-10-01T15:23:38.489Z,2.50
2022-10-01T15:26:06.870Z,2.15
2022-10-01T15:28:34.505Z,2.22
2022-10-01T15:31:03.145Z,2.10
2022-10-01T15:33:30.862Z,2.60
2022-10-01T15:36:02.303Z,2.70
2022-10-01T15:38:32.665Z,2.50
2022-10-01T15:41:26.682Z,2.35
2022-10-01T15:43:49.700Z,2.30
2022-10-01T15:46:17.597Z,2.00
2022-10-01T15:48:44.727Z,2.00
2022-10-01T15:51:16.498Z,2.30
2022-10-01T15:53:42.819Z,1.70
2022-10-01T15:56:11.952Z,1.73
2022-10-01T15:58:42.814Z,1.90
2022-10-01T16:01:13.903Z,1.95
2022-10-01T16:03:52.415Z,2.38
2022-10-01T16:06:20.853Z,2.15
2022-10-01T16:08:50.149Z,2.22
2022-10-01T16:11:17.805Z,1.95
2022-10-01T16:13:45.407Z,2.50
2022-10-01T16:16:14.977Z,2.45
2022-10-01T16:18:41.876Z,1.88
2022-10-01T16:21:09.998Z,2.30
2022-10-01T16:23:36.948Z,2.20
2022-10-01T16:26:04.731Z,2.65
2022-10-01T16:28:32.290Z,2.47
2022-10-01T16:30:58.671Z,2.03
2022-10-01T16:33:26.593Z,2.38
2022-10-01T16:35:54.324Z,1.80
2022-10-01T16:38:20.555Z,2.30
2022-10-01T16:40:49.647Z,2.40
2022-10-01T16:43:20.623Z,1.90
2022-10-01T16:45:46.960Z,2.42
2022-10-01T16:48:15.528Z,2.70
2022-10-01T16:50:42.591Z,2.55
2022-10-01T16:53:11.215Z,2.25
2022-10-01T16:55:37.876Z,2.17
2022-10-01T16:58:04.820Z,1.85
2022-10-01T17:00:31.103Z,2.28
2022-10-01T17:02:57.726Z,2.60
2022-10-01T17:05:28.967Z,2.22
2022-10-01T17:08:00.888Z,2.15
2022-10-01T17:10:28.776Z,2.33
2022-10-01T17:12:55.650Z,2.25
2022-10-01T17:15:26.783Z,2.55
2022-10-01T17:17:59.477Z,3.17
2022-10-01T17:20:28.459Z,2.53
2022-10-01T17:22:55.252Z,2.30
2022-10-01T17:25:22.727Z,2.55
2022-10-01T17:27:49.234Z,2.88
2022-10-01T17:30:15.999Z,2.30
2022-10-01T17:32:46.459Z,2.88
2022-10-01T17:35:13.457Z,2.58
2022-10-01T17:37:40.100Z,2.78
2022-10-01T17:40:06.768Z,2.38
2022-10-01T17:42:34.404Z,3.05
2022-10-01T17:45:00.648Z,3.08
2022-10-01T17:47:26.878Z,3.05
2022-10-01T17:49:53.168Z,3.17
2022-10-01T17:52:19.447Z,2.90
2022-10-01T17:54:45.674Z,2.78
2022-10-01T17:57:12.108Z,2.95
2022-10-01T17:59:38.591Z,2.83
2022-10-01T18:02:23.692Z,3.13
2022-10-01T18:04:52.080Z,3.50
2022-10-01T18:07:18.299Z,3.10
2022-10-01T18:09:45.994Z,2.88
2022-10-01T18:12:13.055Z,3.00
2022-10-01T18:14:39.372Z,3.17
2022-10-01T18:17:05.644Z,2.60
2022-10-01T18:19:52.805Z,2.85
2022-10-01T18:22:18.429Z,2.88
2022-10-01T18:24:45.725Z,2.47
2022-10-01T18:27:12.824Z,3.10
2022-10-01T18:29:39.128Z,3.03
2022-10-01T18:32:14.407Z,2.88
2022-10-01T18:34:44.956Z,3.28
2022-10-01T18:37:26.482Z,3.25
2022-10-01T18:40:02.695Z,3.08
2022-10-01T18:42:33.385Z,3.03
2022-10-01T18:45:00.985Z,3.00
2022-10-01T18:47:50.568Z,2.60
2022-10-01T18:50:21.470Z,2.45
2022-10-01T18:53:06.582Z,3.47
2022-10-01T18:55:54.770Z,3.28
2022-10-01T18:58:33.409Z,3.00
2022-10-01T19:01:18.157Z,3.45
2022-10-01T19:03:47.445Z,3.72
2022-10-01T19:06:28.026Z,3.13
2022-10-01T19:09:00.611Z,3.53
2022-10-01T19:11:36.918Z,2.85
2022-10-01T19:14:22.057Z,2.97
2022-10-01T19:16:48.279Z,3.67
2022-10-01T19:19:26.583Z,3.75
2022-10-01T19:22:01.803Z,4.15
2022-10-01T19:24:27.969Z,4.55
2022-10-01T19:27:14.254Z,4.30
2022-10-01T19:29:58.452Z,4.05
2022-10-01T19:32:27.205Z,4.20
2022-10-01T19:35:00.578Z,4.07
2022-10-01T19:37:35.475Z,3.67
2022-10-01T19:40:16.858Z,3.97
2022-10-01T19:42:47.527Z,4.40
2022-10-01T19:45:25.479Z,4.33
2022-10-01T19:48:00.276Z,4.78
2022-10-01T19:50:33.175Z,4.60
2022-10-01T19:53:00.798Z,4.00
2022-10-01T19:55:31.412Z,4.10
2022-10-01T19:58:00.161Z,3.97
2022-10-01T20:00:26.371Z,3.88
2022-10-01T20:03:09.532Z,4.57
2022-10-01T20:05:43.924Z,5.43
2022-10-01T20:08:24.893Z,5.28
2022-10-01T20:10:54.103Z,7.50
2022-10-01T20:13:20.766Z,6.28
2022-10-01T20:15:49.903Z,6.95
2022-10-01T20:18:35.024Z,5.63
2022-10-01T20:21:04.060Z,6.20
2022-10-01T20:23:47.631Z,5.50
2022-10-01T20:26:25.651Z,5.97
2022-10-01T20:28:52.679Z,4.78
2022-10-01T20:31:18.968Z,4.72
2022-10-01T20:33:45.185Z,4.95
2022-10-01T20:36:11.403Z,5.20
2022-10-01T20:38:41.367Z,4.97
2022-10-01T20:41:15.466Z,5.18
2022-10-01T20:43:50.075Z,4.45
2022-10-01T20:46:24.668Z,4.60
2022-10-01T20:48:57.902Z,4.60
2022-10-01T20:51:30.863Z,3.97
2022-10-01T20:54:02.609Z,4.47
2022-10-01T20:56:37.635Z,4.07
2022-10-01T20:59:12.527Z,4.40
2022-10-01T21:01:42.226Z,4.47
2022-10-01T21:04:20.687Z,4.03
2022-10-01T21:06:48.659Z,4.45
2022-10-01T21:09:18.374Z,4.10
2022-10-01T21:11:47.508Z,4.30
2022-10-01T21:14:26.109Z,4.88
2022-10-01T21:17:12.535Z,4.55
2022-10-01T21:19:38.694Z,4.00
2022-10-01T21:22:23.473Z,4.05
2022-10-01T21:25:08.596Z,3.92
2022-10-01T21:27:47.566Z,4.13
2022-10-01T21:30:15.736Z,3.83
2022-10-01T21:32:47.983Z,3.45
2022-10-01T21:35:19.168Z,3.30
2022-10-01T21:37:55.780Z,4.00
2022-10-01T21:40:41.942Z,3.17
2022-10-01T21:43:28.380Z,3.60
2022-10-01T21:46:00.205Z,3.75
2022-10-01T21:48:46.531Z,3.80
2022-10-01T21:51:17.905Z,3.45
2022-10-01T21:53:53.800Z,3.03
2022-10-01T21:56:22.779Z,3.28
2022-10-01T21:58:49.868Z,3.83
2022-10-01T22:01:35.268Z,3.72
2022-10-01T22:04:05.691Z,4.28
2022-10-01T22:06:44.990Z,3.40
2022-10-01T22:09:42.899Z,3.40
2022-10-01T22:12:09.260Z,3.53
2022-10-01T22:14:35.532Z,3.42
2022-10-01T22:17:04.626Z,3.50
2022-10-01T22:19:42.780Z,3.22
2022-10-01T22:22:08.964Z,3.08
2022-10-01T22:24:43.695Z,3.15
2022-10-01T22:27:12.887Z,3.20
2022-10-01T22:29:42.346Z,3.83
2022-10-01T22:32:10.709Z,3.47
2022-10-01T22:34:39.524Z,3.00
2022-10-01T22:37:12.987Z,3.97
2022-10-01T22:39:42.394Z,2.90
2022-10-01T22:42:12.188Z,3.45
2022-10-01T22:44:38.737Z,3.28
2022-10-01T22:47:08.004Z,2.50
2022-10-01T22:49:34.511Z,3.15
2022-10-01T22:52:19.566Z,3.08
2022-10-01T22:54:51.616Z,3.38
2022-10-01T22:57:23.644Z,3.63
2022-10-01T22:59:49.799Z,3.00
2022-10-01T23:02:34.649Z,3.60
2022-10-01T23:05:07.656Z,3.42
2022-10-01T23:07:40.733Z,3.13
2022-10-01T23:10:12.735Z,3.67
2022-10-01T23:12:57.822Z,3.92
2022-10-01T23:15:30.108Z,3.55
2022-10-01T23:18:02.191Z,3.85
2022-10-01T23:20:29.398Z,3.63
2022-10-01T23:23:01.386Z,3.47
2022-10-01T23:25:46.236Z,3.90
2022-10-01T23:28:31.884Z,4.18
2022-10-01T23:31:06.163Z,3.45
2022-10-01T23:33:55.720Z,3.85
2022-10-01T23:36:21.910Z,4.00
2022-10-01T23:38:50.852Z,4.25
2022-10-01T23:41:30.819Z,3.90
2022-10-01T23:44:00.761Z,3.95
2022-10-01T23:46:29.651Z,4.40
2022-10-01T23:48:59.168Z,4.03
2022-10-01T23:51:28.895Z,3.80
2022-10-01T23:53:58.898Z,3.72
2022-10-01T23:56:51.112Z,4.53
2022-10-01T23:59:28.847Z,4.00
